Time;durP1;ratioP1;P1;durP2;ratioP2;P2;SDS_P1;SDS_P2;PMS_P1;PMS_P2;Temp;Humidity;BMP_temperature;BMP_pressure;BME280_temperature;BME280_humidity;BME280_pressure;Samples;Min_cycle;Max_cycle;Signal;HPM_P1;HPM_P2
2023/10/19 00:00:38;;;;;;;14.10;7.47;;;;;;;8.92;100.00;98445.22;5074084;28;20130;-66
2023/10/19 00:03:06;;;;;;;14.60;8.40;;;;;;;8.91;100.00;98438.28;5023985;28;20044;-66
2023/10/19 00:05:35;;;;;;;14.70;8.30;;;;;;;9.00;100.00;98452.28;5040018;28;20061;-65
2023/10/19 00:08:14;;;;;;;12.98;7.78;;;;;;;8.92;100.00;98445.22;5073671;28;20060;-66
2023/10/19 00:10:46;;;;;;;13.15;8.23;;;;;;;8.99;100.00;98451.47;5041289;28;20366;-66
2023/10/19 00:13:13;;;;;;;16.13;8.90;;;;;;;8.85;100.00;98446.94;5056581;28;20219;-67
2023/10/19 00:15:48;;;;;;;12.77;8.95;;;;;;;8.94;100.00;98442.38;5023241;28;20093;-66
2023/10/19 00:23:30;;;;;;;13.48;9.10;;;;;;;8.91;100.00;98448.03;5041349;28;20040;-67
2023/10/19 00:26:05;;;;;;;16.98;8.73;;;;;;;8.85;100.00;98439.00;5056861;28;20060;-68
2023/10/19 00:28:35;;;;;;;12.73;8.60;;;;;;;8.88;100.00;98443.94;5056671;28;20467;-67
2023/10/19 00:31:07;;;;;;;12.70;9.20;;;;;;;8.85;100.00;98449.56;5055826;28;20048;-67
2023/10/19 00:33:38;;;;;;;13.07;8.75;;;;;;;8.83;100.00;98446.28;5055981;28;20290;-67
2023/10/19 00:36:09;;;;;;;11.80;7.72;;;;;;;8.84;100.00;98444.47;5073471;28;20109;-67
2023/10/19 00:43:42;;;;;;;12.30;8.25;;;;;;;8.84;100.00;98450.56;5039136;28;20075;-68
2023/10/19 00:48:50;;;;;;;13.85;8.48;;;;;;;8.94;100.00;98437.09;5038977;28;20067;-66
2023/10/19 00:51:40;;;;;;;22.23;9.25;;;;;;;9.04;100.00;98441.16;5021883;28;20049;-66
2023/10/19 00:54:14;;;;;;;10.98;8.05;;;;;;;9.13;100.00;98433.97;5042096;28;20554;-66
2023/10/19 00:56:48;;;;;;;12.43;8.00;;;;;;;9.00;100.00;98447.81;5038950;28;20059;-66
2023/10/19 00:59:23;;;;;;;13.05;8.55;;;;;;;8.97;100.00;98437.56;5022787;28;20048;-66
2023/10/19 01:02:03;;;;;;;12.73;8.30;;;;;;;9.08;100.00;98434.50;5023091;28;20037;-65
2023/10/19 01:04:34;;;;;;;10.50;8.40;;;;;;;8.84;100.00;98447.09;5056925;28;20049;-67
2023/10/19 01:07:15;;;;;;;13.77;8.80;;;;;;;8.95;100.00;98436.91;5055194;28;20108;-67
2023/10/19 01:09:43;;;;;;;;;;;;;;;9.16;100.00;98439.75;5073205;28;20044;-67
2023/10/19 01:12:25;;;;;;;12.85;7.10;;;;;;;8.95;100.00;98444.84;5055415;28;19920;-67
2023/10/19 01:15:17;;;;;;;12.18;8.55;;;;;;;9.15;100.00;98435.44;5039057;28;20052;-67
2023/10/19 01:17:46;;;;;;;15.25;8.43;;;;;;;9.09;100.00;98433.50;5038682;28;20048;-66
2023/10/19 01:20:42;;;;;;;13.35;9.35;;;;;;;9.03;100.00;98433.38;5038746;28;20414;-67
2023/10/19 01:26:21;;;;;;;10.80;8.25;;;;;;;9.07;100.00;98429.41;5073146;28;20068;-67
2023/10/19 01:33:58;;;;;;;19.17;9.50;;;;;;;8.91;100.00;98434.81;5072419;28;20367;-69
2023/10/19 01:36:25;;;;;;;12.50;9.55;;;;;;;8.87;100.00;98431.69;5072786;28;20044;-66
2023/10/19 01:38:54;;;;;;;14.30;9.57;;;;;;;9.01;100.00;98428.25;5038100;28;20189;-69
2023/10/19 01:41:21;;;;;;;12.48;8.32;;;;;;;8.97;100.00;98429.63;5072370;28;20041;-68
2023/10/19 01:43:50;;;;;;;10.55;8.98;;;;;;;9.07;100.00;98426.75;5055040;28;20055;-68
2023/10/19 01:48:55;;;;;;;11.68;9.13;;;;;;;9.03;100.00;98428.09;5054584;28;20390;-69
2023/10/19 01:51:26;;;;;;;13.48;8.88;;;;;;;9.03;100.00;98422.78;5022409;28;20044;-68
2023/10/19 01:53:55;;;;;;;15.82;9.05;;;;;;;9.14;100.00;98427.66;5072461;28;20382;-68
2023/10/19 01:56:22;;;;;;;11.75;9.10;;;;;;;9.04;100.00;98419.16;5054953;28;20063;-68
2023/10/19 01:58:51;;;;;;;12.23;8.98;;;;;;;9.12;100.00;98417.25;5034815;28;20048;-68
2023/10/19 02:03:52;;;;;;;15.30;9.48;;;;;;;9.18;100.00;98427.13;5050373;28;20037;-68
2023/10/19 02:06:19;;;;;;;12.35;8.90;;;;;;;9.09;100.00;98425.56;5052160;28;20106;-68
2023/10/19 02:09:26;;;;;;;11.60;9.30;;;;;;;9.37;100.00;98418.69;5050569;28;20057;-69
2023/10/19 02:11:55;;;;;;;12.05;9.18;;;;;;;9.17;100.00;98419.38;5049275;28;20135;-68
2023/10/19 02:14:24;;;;;;;12.77;9.93;;;;;;;8.98;100.00;98423.31;5018122;28;20036;-68
2023/10/19 02:16:56;;;;;;;16.75;10.10;;;;;;;9.07;100.00;98413.50;5050766;28;20083;-68
2023/10/19 02:19:26;;;;;;;14.60;10.05;;;;;;;9.05;100.00;98421.63;5018174;28;20037;-68
2023/10/19 02:21:56;;;;;;;19.20;10.35;;;;;;;9.15;100.00;98408.94;5050354;28;20439;-68
2023/10/19 02:24:22;;;;;;;12.70;9.63;;;;;;;8.96;100.00;98430.63;5050350;28;20099;-65
2023/10/19 02:26:53;;;;;;;17.85;9.95;;;;;;;9.02;100.00;98415.84;5033737;28;20052;-65
2023/10/19 02:29:19;;;;;;;14.75;9.85;;;;;;;8.90;100.00;98420.75;5051224;28;20056;-65
2023/10/19 02:31:45;;;;;;;11.45;9.27;;;;;;;8.89;100.00;98426.22;5050805;28;20048;-66
2023/10/19 02:34:15;;;;;;;21.70;10.32;;;;;;;9.05;100.00;98413.69;5034371;28;20037;-66
2023/10/19 02:36:42;;;;;;;14.40;10.27;;;;;;;9.10;100.00;98416.59;5050440;28;20032;-66
2023/10/19 02:39:10;;;;;;;14.27;10.68;;;;;;;9.19;100.00;98406.78;5033911;28;20049;-66
2023/10/19 02:41:41;;;;;;;11.27;9.85;;;;;;;9.19;100.00;98417.38;5051350;28;20048;-66
2023/10/19 02:46:52;;;;;;;13.38;10.27;;;;;;;9.14;100.00;98412.59;5034675;28;20601;-66
2023/10/19 02:49:20;;;;;;;12.32;9.30;;;;;;;9.09;100.00;98419.41;5050864;28;20045;-68
2023/10/19 02:51:49;;;;;;;13.45;10.13;;;;;;;9.12;100.00;98406.66;5017784;28;20143;-68
2023/10/19 02:54:22;;;;;;;14.50;9.65;;;;;;;9.08;100.00;98417.78;5034143;28;20080;-66
2023/10/19 02:56:56;;;;;;;12.40;9.65;;;;;;;9.10;100.00;98415.78;5050482;28;20175;-66
2023/10/19 02:59:24;;;;;;;17.17;10.80;;;;;;;9.24;100.00;98421.13;5051173;28;20041;-65
2023/10/19 03:04:37;;;;;;;14.00;10.00;;;;;;;9.17;100.00;98414.06;5035593;28;20491;-67
2023/10/19 03:07:04;;;;;;;14.40;9.25;;;;;;;9.19;100.00;98420.00;5001497;28;20067;-67
2023/10/19 03:09:31;;;;;;;15.98;10.02;;;;;;;9.19;100.00;98412.06;5037172;28;20565;-67
2023/10/19 03:12:03;;;;;;;17.80;10.43;;;;;;;9.17;100.00;98409.59;5020761;28;20051;-68
2023/10/19 03:14:32;;;;;;;16.55;10.48;;;;;;;9.14;100.00;98411.78;5039888;28;20048;-67
2023/10/19 03:17:03;;;;;;;16.13;11.02;;;;;;;9.04;100.00;98409.38;5041034;28;20040;-66
2023/10/19 03:19:29;;;;;;;14.48;9.65;;;;;;;8.93;100.00;98407.16;5042260;28;20059;-66
2023/10/19 03:21:59;;;;;;;17.65;11.25;;;;;;;9.02;100.00;98408.75;5073957;28;20045;-66
2023/10/19 03:24:35;;;;;;;16.48;10.90;;;;;;;9.02;100.00;98414.03;5057226;28;20048;-67
2023/10/19 03:27:16;;;;;;;16.52;11.40;;;;;;;9.21;100.00;98412.72;5057634;28;20041;-66
2023/10/19 03:29:46;;;;;;;17.85;10.75;;;;;;;9.15;100.00;98419.53;5058795;28;20048;-66
2023/10/19 03:32:14;;;;;;;20.38;11.63;;;;;;;9.11;100.00;98412.13;5041039;28;20040;-66
2023/10/19 03:34:43;;;;;;;16.38;10.70;;;;;;;9.07;100.00;98414.31;5041235;28;20040;-66
2023/10/19 03:37:12;;;;;;;16.33;11.23;;;;;;;9.00;100.00;98417.84;5041345;28;20208;-65
2023/10/19 03:39:38;;;;;;;16.58;11.98;;;;;;;9.00;100.00;98409.91;5057005;28;20269;-65
2023/10/19 03:42:08;;;;;;;16.63;11.77;;;;;;;8.99;100.00;98417.03;5057355;28;20072;-67
2023/10/19 03:47:20;;;;;;;15.20;11.30;;;;;;;9.11;100.00;98410.31;5057007;28;20488;-66
2023/10/19 03:49:47;;;;;;;15.15;11.77;;;;;;;9.13;100.00;98410.13;5074068;28;20032;-66
2023/10/19 03:54:40;;;;;;;14.55;10.85;;;;;;;9.08;100.00;98418.63;5039284;28;20067;-66
2023/10/19 03:57:11;;;;;;;17.42;11.65;;;;;;;9.18;100.00;98415.72;5054468;28;20068;-67
2023/10/19 03:59:42;;;;;;;15.73;10.98;;;;;;;9.25;100.00;98417.47;5056023;28;20075;-66
2023/10/19 04:02:16;;;;;;;17.13;12.23;;;;;;;9.18;100.00;98419.19;5074061;28;20143;-67
2023/10/19 04:04:43;;;;;;;12.35;9.95;;;;;;;9.13;100.00;98418.09;5039863;28;20471;-66
2023/10/19 04:07:16;;;;;;;16.83;11.30;;;;;;;9.16;100.00;98425.66;5056377;28;20083;-66
2023/10/19 04:12:31;;;;;;;13.05;9.98;;;;;;;9.25;100.00;98421.94;5036311;28;20055;-66
2023/10/19 04:14:57;;;;;;;15.98;10.18;;;;;;;9.26;100.00;98416.47;5074007;28;20062;-66
2023/10/19 04:17:23;;;;;;;17.38;10.98;;;;;;;9.23;100.00;98421.28;5056135;28;20121;-69
2023/10/19 04:19:54;;;;;;;15.02;10.48;;;;;;;9.37;100.00;98415.22;5056353;28;20462;-66
2023/10/19 04:22:24;;;;;;;13.82;10.35;;;;;;;9.33;100.00;98427.97;5073950;28;20131;-66
2023/10/19 04:24:50;;;;;;;11.20;9.93;;;;;;;9.32;100.00;98436.09;5055949;28;20501;-67
2023/10/19 04:27:16;;;;;;;16.70;11.32;;;;;;;9.31;100.00;98423.88;5038650;28;20037;-66
2023/10/19 04:29:45;;;;;;;14.48;11.18;;;;;;;9.36;100.00;98429.47;5039474;28;20072;-66
2023/10/19 04:32:13;;;;;;;17.88;12.05;;;;;;;9.33;100.00;98421.88;5073724;28;20144;-67
2023/10/19 04:34:39;;;;;;;13.60;10.55;;;;;;;9.40;100.00;98418.34;5039872;28;20037;-67
2023/10/19 04:37:06;;;;;;;17.60;11.48;;;;;;;9.31;100.00;98430.00;5040096;28;20557;-66
2023/10/19 04:39:34;;;;;;;14.25;10.75;;;;;;;9.36;100.00;98432.13;5056780;28;20085;-66
2023/10/19 04:42:00;;;;;;;17.85;12.13;;;;;;;9.30;100.00;98430.19;5074289;28;20111;-66
2023/10/19 04:44:26;;;;;;;13.95;11.15;;;;;;;9.42;100.00;98424.28;5055803;28;20048;-67
2023/10/19 04:46:53;;;;;;;15.50;11.48;;;;;;;9.43;100.00;98425.91;5073135;28;20063;-66
2023/10/19 04:49:18;;;;;;;16.48;11.07;;;;;;;9.49;100.00;98421.72;5073088;28;20122;-67
2023/10/19 04:51:44;;;;;;;17.25;11.50;;;;;;;9.48;100.00;98428.84;5055581;28;20403;-66
2023/10/19 04:54:10;;;;;;;14.52;10.32;;;;;;;9.43;100.00;98430.38;5073080;28;20378;-67
2023/10/19 04:56:36;;;;;;;13.68;10.32;;;;;;;9.44;100.00;98430.19;5055839;28;20408;-67
2023/10/19 04:59:03;;;;;;;13.88;10.27;;;;;;;9.58;100.00;98428.59;5073678;28;20131;-66
2023/10/19 05:01:29;;;;;;;16.55;10.15;;;;;;;9.58;100.00;98432.06;5056592;28;20458;-66
2023/10/19 05:03:55;;;;;;;16.50;11.02;;;;;;;9.53;100.00;98434.41;5073687;28;20036;-65
2023/10/19 05:06:22;;;;;;;11.90;9.88;;;;;;;9.54;100.00;98429.94;5039321;28;20540;-67
2023/10/19 05:08:48;;;;;;;15.23;10.25;;;;;;;9.51;100.00;98423.19;5073494;28;20056;-67
2023/10/19 05:11:13;;;;;;;14.20;9.73;;;;;;;9.59;100.00;98436.38;5055732;28;20066;-66
2023/10/19 05:13:40;;;;;;;13.02;9.98;;;;;;;9.65;100.00;98426.88;5039238;28;20055;-66
2023/10/19 05:16:07;;;;;;;12.43;9.43;;;;;;;9.78;100.00;98427.03;5073154;28;20052;-66
2023/10/19 05:18:34;;;;;;;16.75;10.38;;;;;;;9.70;100.00;98429.81;5055390;28;20032;-66
2023/10/19 05:21:00;;;;;;;17.02;10.13;;;;;;;9.71;100.00;98434.91;5073322;28;20045;-66
2023/10/19 05:23:27;;;;;;;12.52;9.95;;;;;;;9.84;100.00;98440.41;5055385;28;20045;-66
2023/10/19 05:25:59;;;;;;;15.27;10.35;;;;;;;9.74;100.00;98431.06;5021982;28;20177;-66
2023/10/19 05:28:25;;;;;;;16.02;11.20;;;;;;;9.67;100.00;98440.78;5039518;28;20044;-66
2023/10/19 05:30:51;;;;;;;13.85;9.60;;;;;;;9.73;100.00;98438.19;5055227;28;20126;-66
2023/10/19 05:33:26;;;;;;;13.27;10.10;;;;;;;9.77;100.00;98447.44;5054942;28;20036;-66
2023/10/19 05:35:53;;;;;;;14.82;10.10;;;;;;;9.75;100.00;98440.66;5039026;28;20032;-66
2023/10/19 05:38:22;;;;;;;13.75;9.98;;;;;;;9.83;100.00;98448.53;5071748;28;20059;-66
2023/10/19 05:40:49;;;;;;;13.70;10.40;;;;;;;9.82;100.00;98444.25;5072551;28;20036;-66
2023/10/19 05:43:17;;;;;;;15.82;10.50;;;;;;;9.84;100.00;98447.56;5021902;28;20037;-66
2023/10/19 05:45:43;;;;;;;15.20;10.75;;;;;;;9.83;100.00;98454.69;5071863;28;20133;-66
2023/10/19 05:48:08;;;;;;;14.82;9.98;;;;;;;9.82;100.00;98447.72;5038000;28;20075;-67
2023/10/19 05:50:35;;;;;;;14.80;10.10;;;;;;;9.87;100.00;98444.53;5054926;28;20048;-66
2023/10/19 05:53:05;;;;;;;12.45;8.50;;;;;;;9.96;100.00;98451.41;5051096;28;20056;-67
2023/10/19 05:55:39;;;;;;;10.23;7.78;;;;;;;9.90;100.00;98454.78;5035330;28;20048;-67
2023/10/19 05:58:05;;;;;;;10.80;7.97;;;;;;;9.85;100.00;98450.03;5036203;28;20124;-66
2023/10/19 06:00:31;;;;;;;12.88;8.82;;;;;;;9.91;100.00;98453.75;5053871;28;20048;-65
2023/10/19 06:02:59;;;;;;;13.82;8.82;;;;;;;9.88;100.00;98457.59;5053904;28;20052;-65
2023/10/19 06:05:25;;;;;;;16.80;9.15;;;;;;;9.94;100.00;98464.00;5071360;28;20106;-65
2023/10/19 06:07:51;;;;;;;12.57;9.38;;;;;;;9.96;100.00;98462.81;5050142;28;20451;-65
2023/10/19 06:10:20;;;;;;;13.00;9.10;;;;;;;10.16;100.00;98457.81;5050210;28;20475;-65
2023/10/19 06:12:48;;;;;;;12.77;9.52;;;;;;;10.15;100.00;98461.47;5050398;28;20060;-65
2023/10/19 06:15:15;;;;;;;14.82;9.70;;;;;;;10.16;100.00;98463.13;5049800;28;20044;-65
2023/10/19 06:17:42;;;;;;;10.90;7.90;;;;;;;10.05;100.00;98467.03;5055960;28;20060;-72
2023/10/19 06:20:19;;;;;;;16.38;8.20;;;;;;;10.04;100.00;98459.25;5050714;28;20137;-65
2023/10/19 06:22:50;;;;;;;16.48;8.18;;;;;;;10.21;100.00;98455.41;5050610;28;20119;-65
2023/10/19 06:25:17;;;;;;;11.43;7.63;;;;;;;10.17;100.00;98460.28;5051465;28;20399;-64
2023/10/19 06:27:45;;;;;;;11.88;7.72;;;;;;;10.20;100.00;98459.91;5017792;28;20045;-65
2023/10/19 06:30:15;;;;;;;12.73;8.32;;;;;;;10.13;100.00;98453.69;5051811;28;20041;-64
2023/10/19 06:32:47;;;;;;;9.98;7.35;;;;;;;10.28;100.00;98456.34;5050640;28;20471;-65
2023/10/19 06:35:13;;;;;;;9.32;6.68;;;;;;;10.18;100.00;98464.56;5051382;28;20379;-65
2023/10/19 06:37:40;;;;;;;9.82;6.53;;;;;;;10.21;100.00;98461.56;5051538;28;20056;-65
2023/10/19 06:40:08;;;;;;;8.82;5.93;;;;;;;10.33;100.00;98469.06;5051707;28;20045;-64
2023/10/19 06:42:35;;;;;;;10.27;6.85;;;;;;;10.48;100.00;98469.84;5050282;28;20118;-64
2023/10/19 06:45:01;;;;;;;8.13;6.60;;;;;;;10.45;100.00;98467.56;5051208;28;20041;-64
2023/10/19 06:47:29;;;;;;;9.73;6.97;;;;;;;10.52;100.00;98468.50;5083286;28;20459;-65
2023/10/19 06:49:56;;;;;;;10.38;6.30;;;;;;;10.54;100.00;98463.78;5066565;28;20041;-64
2023/10/19 06:52:22;;;;;;;8.02;5.70;;;;;;;10.55;100.00;98465.47;5033822;28;20186;-64
2023/10/19 06:54:48;;;;;;;6.18;4.63;;;;;;;10.61;100.00;98457.56;5051913;28;20070;-64
2023/10/19 06:57:14;;;;;;;10.57;6.45;;;;;;;10.69;100.00;98454.78;5051792;28;20049;-65
2023/10/19 06:59:40;;;;;;;8.82;6.20;;;;;;;10.80;100.00;98456.13;5051939;28;20041;-64
2023/10/19 07:02:07;;;;;;;9.15;6.15;;;;;;;10.81;100.00;98463.09;5050276;28;20049;-64
2023/10/19 07:04:33;;;;;;;6.35;5.65;;;;;;;10.83;100.00;98461.06;5051075;28;20041;-64
2023/10/19 07:07:00;;;;;;;7.82;4.90;;;;;;;10.88;100.00;98469.31;5033461;28;20135;-65
2023/10/19 07:09:26;;;;;;;8.80;5.63;;;;;;;10.88;100.00;98464.81;5053121;28;20044;-64
2023/10/19 07:11:56;;;;;;;7.43;5.10;;;;;;;10.84;100.00;98471.50;5053298;28;20040;-64
2023/10/19 07:14:23;;;;;;;7.50;4.72;;;;;;;10.88;100.00;98469.31;5070988;28;20571;-65
2023/10/19 07:16:51;;;;;;;6.90;5.47;;;;;;;10.79;100.00;98471.25;5053821;28;20048;-64
2023/10/19 07:19:17;;;;;;;5.88;5.13;;;;;;;10.63;100.00;98468.81;5071001;28;20048;-65
2023/10/19 07:21:48;;;;;;;9.15;6.10;;;;;;;10.61;100.00;98472.69;5036964;28;20059;-64
2023/10/19 07:24:15;;;;;;;10.30;5.43;;;;;;;10.66;100.00;98475.56;5021584;28;20041;-65
2023/10/19 07:26:53;;;;;;;7.85;5.90;;;;;;;10.61;100.00;98470.03;5071604;28;20056;-64
2023/10/19 07:29:21;;;;;;;9.05;6.13;;;;;;;10.68;100.00;98478.88;5054708;28;20139;-65
2023/10/19 07:31:48;;;;;;;9.43;5.85;;;;;;;10.72;100.00;98480.13;5070739;28;20040;-64
2023/10/19 07:34:15;;;;;;;8.70;6.10;;;;;;;10.78;100.00;98479.41;5053534;28;20086;-64
2023/10/19 07:36:44;;;;;;;10.63;6.20;;;;;;;11.02;100.00;98487.03;5070920;28;20052;-64
2023/10/19 07:39:18;;;;;;;12.02;5.85;;;;;;;11.19;100.00;98493.75;5053223;28;20056;-65
2023/10/19 07:41:46;;;;;;;10.45;5.60;;;;;;;11.24;100.00;98489.50;5007021;28;20127;-70
2023/10/19 07:44:12;;;;;;;7.55;4.72;;;;;;;11.27;100.00;98477.69;5053340;28;20040;-65
2023/10/19 07:46:38;;;;;;;5.65;4.80;;;;;;;11.27;99.96;98488.31;5070501;28;20036;-64
2023/10/19 07:49:05;;;;;;;6.07;4.50;;;;;;;11.58;99.89;98472.81;5052861;28;20044;-64
2023/10/19 07:51:32;;;;;;;7.47;4.80;;;;;;;12.46;98.61;98491.63;5070348;28;20068;-64
2023/10/19 07:53:58;;;;;;;4.88;3.40;;;;;;;13.23;92.80;98491.13;5036305;28;20354;-64
2023/10/19 07:56:23;;;;;;;4.05;2.90;;;;;;;13.80;87.12;98479.88;5070199;28;20036;-66
2023/10/19 07:58:51;;;;;;;3.47;3.00;;;;;;;14.03;83.99;98484.75;5036304;28;20123;-65
2023/10/19 08:01:17;;;;;;;5.53;3.28;;;;;;;13.76;84.03;98488.50;5037514;28;20485;-65
2023/10/19 08:03:42;;;;;;;7.03;2.55;;;;;;;13.46;81.59;98496.06;5073978;28;20127;-66
2023/10/19 08:06:09;;;;;;;6.30;2.30;;;;;;;12.92;81.61;98490.81;5039552;28;20440;-65
2023/10/19 08:08:35;;;;;;;3.33;2.38;;;;;;;12.48;83.43;98498.44;5060313;28;20095;-65
2023/10/19 08:11:01;;;;;;;4.65;2.70;;;;;;;12.26;85.91;98478.22;5036118;28;20045;-64
2023/10/19 08:13:27;;;;;;;5.57;2.80;;;;;;;12.10;86.64;98489.19;5035698;28;20056;-64
2023/10/19 08:15:55;;;;;;;3.83;2.47;;;;;;;11.83;87.56;98482.88;5053730;28;20045;-65
2023/10/19 08:18:20;;;;;;;3.90;2.90;;;;;;;11.56;88.68;98488.97;5053920;28;20472;-65
2023/10/19 08:20:46;;;;;;;4.78;2.83;;;;;;;11.38;90.94;98485.13;5054155;28;20059;-70
2023/10/19 08:23:23;;;;;;;3.88;2.20;;;;;;;11.26;91.56;98489.31;5053761;28;20098;-65
2023/10/19 08:25:50;;;;;;;3.35;2.28;;;;;;;11.10;93.13;98487.72;5053942;28;20502;-65
2023/10/19 08:28:17;;;;;;;4.68;2.80;;;;;;;10.98;95.04;98486.56;5053967;28;20060;-64
2023/10/19 08:30:56;;;;;;;2.97;2.63;;;;;;;11.26;96.93;98479.50;5036298;28;20462;-64
2023/10/19 08:33:25;;;;;;;3.75;2.63;;;;;;;10.97;98.56;98482.28;5035882;28;20048;-65
2023/10/19 08:35:55;;;;;;;2.50;2.17;;;;;;;11.16;97.77;98491.47;5036135;28;20040;-64
2023/10/19 08:38:20;;;;;;;5.05;2.35;;;;;;;11.06;96.93;98488.28;5053513;28;20462;-64
2023/10/19 08:40:47;;;;;;;3.92;2.70;;;;;;;11.31;96.98;98498.38;5036414;28;20471;-65
2023/10/19 08:43:14;;;;;;;4.05;2.65;;;;;;;11.35;96.91;98490.81;5036249;28;20075;-64
2023/10/19 08:45:42;;;;;;;3.35;2.50;;;;;;;11.50;95.97;98499.56;5035960;28;20445;-65
2023/10/19 08:48:09;;;;;;;8.25;2.53;;;;;;;11.47;96.04;98505.28;5052931;28;20360;-65
2023/10/19 08:50:35;;;;;;;6.00;2.20;;;;;;;11.42;96.08;98503.16;5019185;28;20468;-64
2023/10/19 08:53:02;;;;;;;4.30;2.55;;;;;;;11.60;96.42;98502.72;4975766;28;20069;-64
2023/10/19 08:55:30;;;;;;;14.25;3.70;;;;;;;11.58;94.83;98496.75;4975503;28;20081;-65
2023/10/19 08:58:00;;;;;;;5.43;2.72;;;;;;;11.64;95.02;98498.66;4991721;28;20058;-64
2023/10/19 09:00:46;;;;;;;4.45;3.10;;;;;;;11.42;96.23;98489.06;4974835;28;20060;-65
2023/10/19 09:03:13;;;;;;;2.83;2.33;;;;;;;11.13;96.98;98497.16;4991537;28;20054;-65
2023/10/19 09:05:40;;;;;;;2.20;1.80;;;;;;;11.04;95.62;98496.44;4975753;28;20400;-64
2023/10/19 09:08:06;;;;;;;7.70;2.38;;;;;;;10.90;97.52;98501.81;4984366;28;20053;-64
2023/10/19 09:10:32;;;;;;;5.25;2.80;;;;;;;10.91;98.73;98495.47;4994854;28;20053;-65
2023/10/19 09:13:04;;;;;;;5.18;2.40;;;;;;;10.91;98.49;98501.63;4994756;28;20072;-66
2023/10/19 09:15:34;;;;;;;3.00;2.28;;;;;;;10.82;99.01;98501.94;4995023;28;20057;-64
2023/10/19 09:18:18;;;;;;;2.55;2.28;;;;;;;10.94;99.48;98498.59;4994851;28;20092;-64
2023/10/19 09:21:07;;;;;;;1.85;1.40;;;;;;;10.66;97.31;98497.66;4995092;28;20411;-64
2023/10/19 09:23:33;;;;;;;2.85;1.55;;;;;;;10.64;96.31;98504.16;5023615;28;20065;-65
2023/10/19 09:26:05;;;;;;;1.70;1.30;;;;;;;10.83;96.52;98499.09;5019230;28;20044;-65
2023/10/19 09:28:33;;;;;;;1.67;1.30;;;;;;;10.88;95.72;98509.97;5054805;28;20040;-65
2023/10/19 09:31:00;;;;;;;2.63;1.45;;;;;;;11.12;95.28;98503.47;5055249;28;20055;-64
2023/10/19 09:33:27;;;;;;;2.00;1.10;;;;;;;11.35;94.19;98506.75;5054687;28;20055;-65
2023/10/19 09:35:53;;;;;;;2.88;1.25;;;;;;;11.44;94.17;98509.13;5072299;28;20049;-65
2023/10/19 09:38:22;;;;;;;5.30;1.10;;;;;;;11.87;93.27;98517.88;5054930;28;20047;-64
2023/10/19 09:40:50;;;;;;;2.10;1.35;;;;;;;12.00;89.99;98520.66;5072742;28;20040;-64
2023/10/19 09:43:34;;;;;;;5.07;1.80;;;;;;;12.37;91.28;98514.97;5072420;28;20099;-65
2023/10/19 09:46:05;;;;;;;1.52;1.38;;;;;;;12.53;91.43;98514.63;5054957;28;20076;-65
2023/10/19 09:48:35;;;;;;;1.67;1.27;;;;;;;12.66;89.25;98517.34;5038321;28;20083;-65
2023/10/19 09:51:03;;;;;;;2.30;1.70;;;;;;;12.70;88.56;98515.94;5055000;28;20501;-65
2023/10/19 09:53:29;;;;;;;1.85;1.45;;;;;;;12.74;89.34;98517.19;5037686;28;20040;-65
2023/10/19 09:55:59;;;;;;;4.10;1.80;;;;;;;12.95;88.31;98522.38;5037875;28;20044;-65
2023/10/19 09:58:31;;;;;;;1.77;1.67;;;;;;;12.99;88.44;98515.63;5072040;28;20036;-66
2023/10/19 10:01:02;;;;;;;3.67;2.30;;;;;;;12.70;85.94;98518.59;5054389;28;20044;-65
2023/10/19 10:03:47;;;;;;;5.07;2.80;;;;;;;12.77;86.94;98516.78;5054256;28;20089;-66
2023/10/19 10:06:15;;;;;;;4.15;2.70;;;;;;;12.52;87.57;98517.47;5030154;28;20045;-65
2023/10/19 10:08:45;;;;;;;3.60;2.13;;;;;;;12.29;88.03;98515.09;5063815;28;20070;-65
2023/10/19 10:11:23;;;;;;;3.78;2.72;;;;;;;12.15;89.73;98502.72;5057889;28;20037;-65
2023/10/19 10:13:51;;;;;;;10.85;4.13;;;;;;;12.02;91.13;98510.66;5046352;28;20040;-66
2023/10/19 10:16:19;;;;;;;4.82;3.08;;;;;;;12.14;92.76;98511.75;5027008;28;20045;-66
2023/10/19 10:18:48;;;;;;;6.10;3.50;;;;;;;12.16;91.74;98519.53;5042841;28;20063;-66
2023/10/19 10:21:16;;;;;;;7.65;4.00;;;;;;;12.22;92.92;98516.09;5058337;28;20495;-66
2023/10/19 10:24:04;;;;;;;7.07;3.45;;;;;;;12.58;94.28;98517.53;5025827;28;20040;-66
2023/10/19 10:26:40;;;;;;;10.23;4.03;;;;;;;12.53;90.39;98522.59;5028189;28;20486;-65
2023/10/19 10:29:14;;;;;;;8.38;3.30;;;;;;;12.46;90.16;98523.59;5069519;28;20137;-66
2023/10/19 10:31:43;;;;;;;8.20;3.78;;;;;;;12.23;89.83;98517.72;5009812;28;20037;-65
2023/10/19 10:34:10;;;;;;;8.88;4.60;;;;;;;11.88;90.78;98517.69;5009337;28;20060;-65
2023/10/19 10:37:05;;;;;;;5.20;3.60;;;;;;;12.06;91.80;98519.03;5060382;28;20190;-65
2023/10/19 10:39:31;;;;;;;5.53;3.50;;;;;;;11.73;92.28;98516.97;5057376;28;20109;-64
2023/10/19 10:41:58;;;;;;;5.63;3.30;;;;;;;11.72;94.18;98514.50;5043622;28;20051;-65
2023/10/19 10:44:39;;;;;;;3.75;2.80;;;;;;;11.90;92.76;98525.47;5014017;28;20032;-65
2023/10/19 10:47:11;;;;;;;4.18;3.10;;;;;;;11.96;94.18;98519.41;5065245;28;20498;-67
2023/10/19 10:49:51;;;;;;;4.00;3.10;;;;;;;12.13;94.63;98514.59;5042764;28;20036;-65
2023/10/19 10:52:43;;;;;;;3.80;2.70;;;;;;;12.09;92.47;98518.66;5025918;28;20178;-66
2023/10/19 10:55:11;;;;;;;4.50;2.80;;;;;;;12.07;93.93;98515.38;5057644;28;20454;-66
2023/10/19 10:57:37;;;;;;;4.88;2.70;;;;;;;11.88;92.60;98514.22;5034531;28;20045;-65
2023/10/19 11:00:26;;;;;;;5.03;3.10;;;;;;;12.18;93.90;98512.19;5044196;28;20047;-65
2023/10/19 11:03:08;;;;;;;6.60;3.28;;;;;;;12.44;93.89;98523.78;5042423;28;20037;-64
2023/10/19 11:05:35;;;;;;;5.35;3.13;;;;;;;12.51;93.66;98524.66;5040902;28;20037;-65
2023/10/19 11:08:20;;;;;;;4.78;2.90;;;;;;;12.83;90.90;98524.00;5041989;28;20048;-65
2023/10/19 11:10:47;;;;;;;3.58;2.50;;;;;;;12.76;88.81;98525.78;5059040;28;20102;-64
2023/10/19 11:13:14;;;;;;;3.70;2.72;;;;;;;12.84;89.17;98530.16;5051527;28;20094;-64
2023/10/19 11:15:50;;;;;;;3.80;2.30;;;;;;;13.14;88.92;98527.00;5044018;28;20471;-64
2023/10/19 11:18:32;;;;;;;2.83;1.70;;;;;;;13.21;85.11;98533.16;5044281;28;20051;-64
2023/10/19 11:21:00;;;;;;;2.63;1.77;;;;;;;13.15;84.90;98531.31;5060678;28;20094;-64
2023/10/19 11:23:39;;;;;;;3.85;2.15;;;;;;;13.29;84.00;98530.31;5027586;28;20068;-65
2023/10/19 11:26:05;;;;;;;3.75;2.33;;;;;;;13.13;82.78;98525.34;5050110;28;20055;-67
2023/10/19 11:28:33;;;;;;;2.65;1.80;;;;;;;13.30;84.33;98533.78;5053536;28;20067;-65
2023/10/19 11:31:18;;;;;;;3.35;1.42;;;;;;;13.65;81.62;98534.47;5052910;28;20518;-64
2023/10/19 11:33:48;;;;;;;4.70;1.75;;;;;;;13.53;81.90;98535.06;5051677;28;20055;-65
2023/10/19 11:36:15;;;;;;;3.00;1.65;;;;;;;13.47;81.57;98537.72;5050907;28;20445;-66
2023/10/19 11:38:43;;;;;;;3.30;2.30;;;;;;;13.53;81.76;98527.06;5050391;28;20048;-68
2023/10/19 11:41:10;;;;;;;5.68;2.15;;;;;;;13.79;82.57;98528.13;5035128;28;20076;-66
2023/10/19 11:43:48;;;;;;;4.10;2.08;;;;;;;13.87;82.46;98515.38;5067286;28;20071;-67
2023/10/19 11:46:15;;;;;;;3.80;2.55;;;;;;;14.12;82.29;98523.56;5051487;28;20064;-65
2023/10/19 11:48:45;;;;;;;6.45;2.08;;;;;;;14.19;79.37;98521.72;5036865;28;20049;-65
2023/10/19 11:51:14;;;;;;;4.10;2.70;;;;;;;14.20;80.33;98528.69;5037559;28;20061;-64
2023/10/19 11:53:42;;;;;;;4.47;2.50;;;;;;;14.39;80.68;98518.00;5054323;28;20048;-65
2023/10/19 11:56:12;;;;;;;2.78;1.88;;;;;;;14.25;78.01;98521.75;5054590;28;20134;-65
2023/10/19 11:58:42;;;;;;;4.55;2.40;;;;;;;13.98;78.42;98522.75;5020544;28;20368;-65
2023/10/19 12:01:11;;;;;;;5.80;2.00;;;;;;;13.98;80.42;98520.09;5020793;28;20068;-64
2023/10/19 12:03:41;;;;;;;3.78;1.88;;;;;;;14.21;78.97;98524.97;5069942;28;20067;-64
2023/10/19 12:06:08;;;;;;;3.22;1.60;;;;;;;14.02;78.15;98524.00;5004150;28;20112;-65
2023/10/19 12:08:35;;;;;;;5.55;2.20;;;;;;;13.92;79.23;98526.25;5029929;28;20072;-65
2023/10/19 12:11:03;;;;;;;4.00;2.08;;;;;;;13.89;79.65;98526.66;5012611;28;20053;-65
2023/10/19 12:13:31;;;;;;;3.10;1.30;;;;;;;13.68;77.91;98523.38;4996533;28;20119;-65
2023/10/19 12:15:57;;;;;;;2.67;1.75;;;;;;;13.39;79.27;98514.72;4996592;28;20057;-64
2023/10/19 12:18:28;;;;;;;3.95;2.58;;;;;;;13.35;81.20;98523.34;4996275;28;20472;-65